sensor_id;sensor_type;location;lat;lon;timestamp;temperature;humidity
578;DHT22;275;48.492;9.214;2024-01-11T00:02:06;-0.50;29.70
578;DHT22;275;48.492;9.214;2024-01-11T00:04:33;-0.70;30.00
578;DHT22;275;48.492;9.214;2024-01-11T00:07:00;-0.50;29.70
578;DHT22;275;48.492;9.214;2024-01-11T00:09:27;-0.20;29.00
578;DHT22;275;48.492;9.214;2024-01-11T00:11:54;0.00;28.70
578;DHT22;275;48.492;9.214;2024-01-11T00:14:21;0.10;28.60
578;DHT22;275;48.492;9.214;2024-01-11T00:16:48;0.10;28.60
578;DHT22;275;48.492;9.214;2024-01-11T00:19:16;-0.10;28.60
578;DHT22;275;48.492;9.214;2024-01-11T00:21:42;-0.30;29.20
578;DHT22;275;48.492;9.214;2024-01-11T00:26:20;-1.00;30.10
578;DHT22;275;48.492;9.214;2024-01-11T00:28:47;-1.50;32.70
578;DHT22;275;48.492;9.214;2024-01-11T00:31:13;-1.20;31.90
578;DHT22;275;48.492;9.214;2024-01-11T00:33:40;-0.70;30.10
578;DHT22;275;48.492;9.214;2024-01-11T00:36:07;-0.20;28.90
578;DHT22;275;48.492;9.214;2024-01-11T00:38:34;-0.10;28.30
578;DHT22;275;48.492;9.214;2024-01-11T00:41:01;0.00;28.40
578;DHT22;275;48.492;9.214;2024-01-11T00:43:29;0.00;28.30
578;DHT22;275;48.492;9.214;2024-01-11T00:45:55;0.20;27.90
578;DHT22;275;48.492;9.214;2024-01-11T00:48:22;0.20;27.80
578;DHT22;275;48.492;9.214;2024-01-11T00:50:49;0.10;27.90
578;DHT22;275;48.492;9.214;2024-01-11T00:53:16;0.00;28.10
578;DHT22;275;48.492;9.214;2024-01-11T00:55:43;0.10;28.00
578;DHT22;275;48.492;9.214;2024-01-11T00:58:09;0.10;27.90
578;DHT22;275;48.492;9.214;2024-01-11T01:00:38;0.00;28.10
578;DHT22;275;48.492;9.214;2024-01-11T01:03:04;-0.10;28.00
578;DHT22;275;48.492;9.214;2024-01-11T01:05:32;-0.10;28.10
578;DHT22;275;48.492;9.214;2024-01-11T01:07:59;0.10;27.70
578;DHT22;275;48.492;9.214;2024-01-11T01:10:26;-0.10;28.00
578;DHT22;275;48.492;9.214;2024-01-11T01:12:52;-0.10;28.00
578;DHT22;275;48.492;9.214;2024-01-11T01:15:19;-0.20;28.10
578;DHT22;275;48.492;9.214;2024-01-11T01:17:47;0.00;27.80
578;DHT22;275;48.492;9.214;2024-01-11T01:20:14;0.10;27.60
578;DHT22;275;48.492;9.214;2024-01-11T01:22:41;0.00;27.70
578;DHT22;275;48.492;9.214;2024-01-11T01:25:08;0.10;27.60
578;DHT22;275;48.492;9.214;2024-01-11T01:27:35;-0.10;27.90
578;DHT22;275;48.492;9.214;2024-01-11T01:30:02;-0.30;28.20
578;DHT22;275;48.492;9.214;2024-01-11T01:32:28;-0.50;28.50
578;DHT22;275;48.492;9.214;2024-01-11T01:34:57;-0.50;28.10
578;DHT22;275;48.492;9.214;2024-01-11T01:37:24;-0.70;28.50
578;DHT22;275;48.492;9.214;2024-01-11T01:39:51;-0.90;29.00
578;DHT22;275;48.492;9.214;2024-01-11T01:42:18;-0.70;28.70
578;DHT22;275;48.492;9.214;2024-01-11T01:44:44;-0.50;28.30
578;DHT22;275;48.492;9.214;2024-01-11T01:47:12;-0.20;28.20
578;DHT22;275;48.492;9.214;2024-01-11T01:49:39;-0.30;27.80
578;DHT22;275;48.492;9.214;2024-01-11T01:52:07;-0.40;28.20
578;DHT22;275;48.492;9.214;2024-01-11T01:54:34;-0.60;28.60
578;DHT22;275;48.492;9.214;2024-01-11T01:57:02;-0.50;28.70
578;DHT22;275;48.492;9.214;2024-01-11T01:59:29;-0.80;28.50
578;DHT22;275;48.492;9.214;2024-01-11T02:01:58;-1.20;29.90
578;DHT22;275;48.492;9.214;2024-01-11T02:04:25;-1.60;31.10
578;DHT22;275;48.492;9.214;2024-01-11T02:06:53;-1.30;31.00
578;DHT22;275;48.492;9.214;2024-01-11T02:09:22;-1.00;29.90
578;DHT22;275;48.492;9.214;2024-01-11T02:11:51;-0.60;29.20
578;DHT22;275;48.492;9.214;2024-01-11T02:14:19;-0.50;29.00
578;DHT22;275;48.492;9.214;2024-01-11T02:16:45;-0.40;28.80
578;DHT22;275;48.492;9.214;2024-01-11T02:19:13;-0.30;28.40
578;DHT22;275;48.492;9.214;2024-01-11T02:21:41;-0.30;28.30
578;DHT22;275;48.492;9.214;2024-01-11T02:24:10;-0.20;28.40
578;DHT22;275;48.492;9.214;2024-01-11T02:26:37;-0.30;28.40
578;DHT22;275;48.492;9.214;2024-01-11T02:29:23;-0.10;27.80
578;DHT22;275;48.492;9.214;2024-01-11T02:31:50;-0.20;27.50
578;DHT22;275;48.492;9.214;2024-01-11T02:34:18;-0.20;28.00
578;DHT22;275;48.492;9.214;2024-01-11T02:36:45;-0.30;27.70
578;DHT22;275;48.492;9.214;2024-01-11T02:39:14;-0.10;27.80
578;DHT22;275;48.492;9.214;2024-01-11T02:41:42;-0.10;27.20
578;DHT22;275;48.492;9.214;2024-01-11T02:44:09;-0.10;27.40
578;DHT22;275;48.492;9.214;2024-01-11T02:46:37;-0.10;27.10
578;DHT22;275;48.492;9.214;2024-01-11T02:49:03;-0.30;27.60
578;DHT22;275;48.492;9.214;2024-01-11T02:51:30;-0.40;27.30
578;DHT22;275;48.492;9.214;2024-01-11T02:53:57;-0.30;27.40
578;DHT22;275;48.492;9.214;2024-01-11T02:56:25;-0.50;27.80
578;DHT22;275;48.492;9.214;2024-01-11T02:58:52;-0.40;28.10
578;DHT22;275;48.492;9.214;2024-01-11T03:01:19;-0.40;27.90
578;DHT22;275;48.492;9.214;2024-01-11T03:03:46;-0.30;27.70
578;DHT22;275;48.492;9.214;2024-01-11T03:06:13;-0.30;27.80
578;DHT22;275;48.492;9.214;2024-01-11T03:08:40;-0.20;27.40
578;DHT22;275;48.492;9.214;2024-01-11T03:11:06;-0.10;26.70
578;DHT22;275;48.492;9.214;2024-01-11T03:13:35;-0.30;27.30
578;DHT22;275;48.492;9.214;2024-01-11T03:16:02;-0.30;27.00
578;DHT22;275;48.492;9.214;2024-01-11T03:18:29;-0.50;27.40
578;DHT22;275;48.492;9.214;2024-01-11T03:20:56;-0.50;27.40
578;DHT22;275;48.492;9.214;2024-01-11T03:23:23;-0.50;27.50
578;DHT22;275;48.492;9.214;2024-01-11T03:25:50;-0.70;28.00
578;DHT22;275;48.492;9.214;2024-01-11T03:28:17;-0.60;27.70
578;DHT22;275;48.492;9.214;2024-01-11T03:30:45;-0.50;27.60
578;DHT22;275;48.492;9.214;2024-01-11T03:33:12;-0.50;27.20
578;DHT22;275;48.492;9.214;2024-01-11T03:35:39;-0.60;27.50
578;DHT22;275;48.492;9.214;2024-01-11T03:38:06;-0.70;27.80
578;DHT22;275;48.492;9.214;2024-01-11T03:40:32;-0.80;27.90
578;DHT22;275;48.492;9.214;2024-01-11T03:42:59;-1.10;28.50
578;DHT22;275;48.492;9.214;2024-01-11T03:45:26;-1.20;29.10
578;DHT22;275;48.492;9.214;2024-01-11T03:47:54;-1.00;28.40
578;DHT22;275;48.492;9.214;2024-01-11T03:50:21;-1.10;28.30
578;DHT22;275;48.492;9.214;2024-01-11T03:52:48;-1.20;28.50
578;DHT22;275;48.492;9.214;2024-01-11T03:55:15;-1.60;29.40
578;DHT22;275;48.492;9.214;2024-01-11T03:57:42;-1.90;30.70
578;DHT22;275;48.492;9.214;2024-01-11T04:00:10;-1.80;30.40
578;DHT22;275;48.492;9.214;2024-01-11T04:02:37;-1.60;29.90
578;DHT22;275;48.492;9.214;2024-01-11T04:05:06;-1.70;29.90
578;DHT22;275;48.492;9.214;2024-01-11T04:07:33;-1.80;29.90
578;DHT22;275;48.492;9.214;2024-01-11T04:10:00;-1.80;30.20
578;DHT22;275;48.492;9.214;2024-01-11T04:12:27;-1.60;29.60
578;DHT22;275;48.492;9.214;2024-01-11T04:14:53;-1.40;29.30
578;DHT22;275;48.492;9.214;2024-01-11T04:17:20;-1.10;28.70
578;DHT22;275;48.492;9.214;2024-01-11T04:19:47;-1.00;28.30
578;DHT22;275;48.492;9.214;2024-01-11T04:22:15;-1.00;28.30
578;DHT22;275;48.492;9.214;2024-01-11T04:24:43;-0.90;28.20
578;DHT22;275;48.492;9.214;2024-01-11T04:27:10;-0.90;28.10
578;DHT22;275;48.492;9.214;2024-01-11T04:29:37;-0.90;28.40
578;DHT22;275;48.492;9.214;2024-01-11T04:32:04;-0.90;28.30
578;DHT22;275;48.492;9.214;2024-01-11T04:34:31;-1.10;28.50
578;DHT22;275;48.492;9.214;2024-01-11T04:36:57;-1.40;29.00
578;DHT22;275;48.492;9.214;2024-01-11T04:39:26;-1.60;29.20
578;DHT22;275;48.492;9.214;2024-01-11T04:41:52;-1.40;28.90
578;DHT22;275;48.492;9.214;2024-01-11T04:44:19;-1.40;28.40
578;DHT22;275;48.492;9.214;2024-01-11T04:46:46;-1.60;28.70
578;DHT22;275;48.492;9.214;2024-01-11T04:49:13;-1.80;29.00
578;DHT22;275;48.492;9.214;2024-01-11T04:51:40;-1.50;28.50
578;DHT22;275;48.492;9.214;2024-01-11T04:54:06;-1.50;28.70
578;DHT22;275;48.492;9.214;2024-01-11T04:56:35;-1.40;28.50
578;DHT22;275;48.492;9.214;2024-01-11T04:59:02;-1.40;28.50
578;DHT22;275;48.492;9.214;2024-01-11T05:01:29;-1.30;28.20
578;DHT22;275;48.492;9.214;2024-01-11T05:03:55;-1.10;28.10
578;DHT22;275;48.492;9.214;2024-01-11T05:06:22;-1.10;27.90
578;DHT22;275;48.492;9.214;2024-01-11T05:08:51;-1.20;28.10
578;DHT22;275;48.492;9.214;2024-01-11T05:11:19;-1.30;28.10
578;DHT22;275;48.492;9.214;2024-01-11T05:13:48;-1.20;28.20
578;DHT22;275;48.492;9.214;2024-01-11T05:16:19;-1.20;27.80
578;DHT22;275;48.492;9.214;2024-01-11T05:18:46;-1.00;27.50
578;DHT22;275;48.492;9.214;2024-01-11T05:21:13;-1.00;26.90
578;DHT22;275;48.492;9.214;2024-01-11T05:23:40;-0.90;26.90
578;DHT22;275;48.492;9.214;2024-01-11T05:26:07;-0.90;27.00
578;DHT22;275;48.492;9.214;2024-01-11T05:28:35;-1.00;27.00
578;DHT22;275;48.492;9.214;2024-01-11T05:31:03;-1.00;27.10
578;DHT22;275;48.492;9.214;2024-01-11T05:33:30;-1.30;27.90
578;DHT22;275;48.492;9.214;2024-01-11T05:35:57;-1.50;28.30
578;DHT22;275;48.492;9.214;2024-01-11T05:38:24;-1.70;28.70
578;DHT22;275;48.492;9.214;2024-01-11T05:40:51;-1.70;29.30
578;DHT22;275;48.492;9.214;2024-01-11T05:43:18;-1.60;28.60
578;DHT22;275;48.492;9.214;2024-01-11T05:45:45;-1.30;28.00
578;DHT22;275;48.492;9.214;2024-01-11T05:48:13;-1.10;27.60
578;DHT22;275;48.492;9.214;2024-01-11T05:50:39;-1.10;27.30
578;DHT22;275;48.492;9.214;2024-01-11T05:53:06;-1.00;27.50
578;DHT22;275;48.492;9.214;2024-01-11T05:55:33;-1.10;26.90
578;DHT22;275;48.492;9.214;2024-01-11T05:58:00;-1.00;26.90
578;DHT22;275;48.492;9.214;2024-01-11T06:00:27;-0.90;26.70
578;DHT22;275;48.492;9.214;2024-01-11T06:02:54;-0.90;27.00
578;DHT22;275;48.492;9.214;2024-01-11T06:05:22;-0.70;26.00
578;DHT22;275;48.492;9.214;2024-01-11T06:07:49;-0.90;26.30
578;DHT22;275;48.492;9.214;2024-01-11T06:10:16;-0.90;26.10
578;DHT22;275;48.492;9.214;2024-01-11T06:12:43;-0.70;26.10
578;DHT22;275;48.492;9.214;2024-01-11T06:15:10;-0.80;26.00
578;DHT22;275;48.492;9.214;2024-01-11T06:17:37;-0.70;26.10
578;DHT22;275;48.492;9.214;2024-01-11T06:20:04;-0.90;26.30
578;DHT22;275;48.492;9.214;2024-01-11T06:22:33;-0.90;26.50
578;DHT22;275;48.492;9.214;2024-01-11T06:25:00;-1.10;26.80
578;DHT22;275;48.492;9.214;2024-01-11T06:27:27;-1.00;27.00
578;DHT22;275;48.492;9.214;2024-01-11T06:29:54;-1.10;27.00
578;DHT22;275;48.492;9.214;2024-01-11T06:32:20;-1.20;26.70
578;DHT22;275;48.492;9.214;2024-01-11T06:34:47;-1.10;26.90
578;DHT22;275;48.492;9.214;2024-01-11T06:37:14;-1.00;27.00
578;DHT22;275;48.492;9.214;2024-01-11T06:39:42;-1.20;27.40
578;DHT22;275;48.492;9.214;2024-01-11T06:42:09;-1.40;27.80
578;DHT22;275;48.492;9.214;2024-01-11T06:44:36;-1.20;27.20
578;DHT22;275;48.492;9.214;2024-01-11T06:47:03;-1.10;26.80
578;DHT22;275;48.492;9.214;2024-01-11T06:49:31;-1.20;27.00
578;DHT22;275;48.492;9.214;2024-01-11T06:51:57;-1.00;27.10
578;DHT22;275;48.492;9.214;2024-01-11T06:54:24;-1.10;26.90
578;DHT22;275;48.492;9.214;2024-01-11T06:56:52;-1.00;26.70
578;DHT22;275;48.492;9.214;2024-01-11T06:59:19;-1.00;26.40
578;DHT22;275;48.492;9.214;2024-01-11T07:01:46;-1.00;26.70
578;DHT22;275;48.492;9.214;2024-01-11T07:04:13;-1.20;26.80
578;DHT22;275;48.492;9.214;2024-01-11T07:06:40;-1.20;26.50
578;DHT22;275;48.492;9.214;2024-01-11T07:09:07;-1.30;27.00
578;DHT22;275;48.492;9.214;2024-01-11T07:11:36;-1.30;26.90
578;DHT22;275;48.492;9.214;2024-01-11T07:14:04;-1.30;26.90
578;DHT22;275;48.492;9.214;2024-01-11T07:16:31;-1.20;26.70
578;DHT22;275;48.492;9.214;2024-01-11T07:18:58;-1.50;26.90
578;DHT22;275;48.492;9.214;2024-01-11T07:21:25;-1.90;27.80
578;DHT22;275;48.492;9.214;2024-01-11T07:23:55;-1.70;28.00
578;DHT22;275;48.492;9.214;2024-01-11T07:26:23;-1.30;27.50
578;DHT22;275;48.492;9.214;2024-01-11T07:28:50;-1.10;27.10
578;DHT22;275;48.492;9.214;2024-01-11T07:31:18;-1.10;27.40
578;DHT22;275;48.492;9.214;2024-01-11T07:33:45;-1.00;27.00
578;DHT22;275;48.492;9.214;2024-01-11T07:36:12;-1.10;26.80
578;DHT22;275;48.492;9.214;2024-01-11T07:38:39;-1.20;27.60
578;DHT22;275;48.492;9.214;2024-01-11T07:41:06;-1.10;27.30
578;DHT22;275;48.492;9.214;2024-01-11T07:43:33;-1.00;27.00
578;DHT22;275;48.492;9.214;2024-01-11T07:46:01;-0.70;26.70
578;DHT22;275;48.492;9.214;2024-01-11T07:48:30;-0.60;26.20
578;DHT22;275;48.492;9.214;2024-01-11T07:50:57;-0.70;26.40
578;DHT22;275;48.492;9.214;2024-01-11T07:53:24;-0.80;26.40
578;DHT22;275;48.492;9.214;2024-01-11T07:55:51;-0.80;26.40
578;DHT22;275;48.492;9.214;2024-01-11T07:58:18;-0.70;26.20
578;DHT22;275;48.492;9.214;2024-01-11T08:00:46;-0.50;25.80
578;DHT22;275;48.492;9.214;2024-01-11T08:03:13;-0.50;25.70
578;DHT22;275;48.492;9.214;2024-01-11T08:05:42;-0.70;26.20
578;DHT22;275;48.492;9.214;2024-01-11T08:08:09;-0.80;26.30
578;DHT22;275;48.492;9.214;2024-01-11T08:10:36;-1.40;27.60
578;DHT22;275;48.492;9.214;2024-01-11T08:13:03;-1.70;28.70
578;DHT22;275;48.492;9.214;2024-01-11T08:15:30;-1.40;28.20
578;DHT22;275;48.492;9.214;2024-01-11T08:17:57;-1.10;27.80
578;DHT22;275;48.492;9.214;2024-01-11T08:20:26;-0.80;27.40
578;DHT22;275;48.492;9.214;2024-01-11T08:22:54;-0.50;27.10
578;DHT22;275;48.492;9.214;2024-01-11T08:25:21;-0.40;27.10
578;DHT22;275;48.492;9.214;2024-01-11T08:27:49;-0.20;26.50
578;DHT22;275;48.492;9.214;2024-01-11T08:30:16;-0.10;26.50
578;DHT22;275;48.492;9.214;2024-01-11T08:32:42;-0.10;26.30
578;DHT22;275;48.492;9.214;2024-01-11T08:35:10;0.00;26.30
578;DHT22;275;48.492;9.214;2024-01-11T08:37:37;0.10;25.90
578;DHT22;275;48.492;9.214;2024-01-11T08:40:06;-0.20;26.00
578;DHT22;275;48.492;9.214;2024-01-11T08:42:34;0.10;26.90
578;DHT22;275;48.492;9.214;2024-01-11T08:45:01;0.10;27.20
578;DHT22;275;48.492;9.214;2024-01-11T08:47:32;-0.30;27.50
578;DHT22;275;48.492;9.214;2024-01-11T08:50:00;-0.10;27.00
578;DHT22;275;48.492;9.214;2024-01-11T08:52:27;-0.20;27.10
578;DHT22;275;48.492;9.214;2024-01-11T08:54:54;0.00;27.30
578;DHT22;275;48.492;9.214;2024-01-11T08:57:22;0.40;26.90
578;DHT22;275;48.492;9.214;2024-01-11T08:59:49;0.30;27.40
578;DHT22;275;48.492;9.214;2024-01-11T09:02:15;0.60;26.90
578;DHT22;275;48.492;9.214;2024-01-11T09:04:42;0.40;27.00
578;DHT22;275;48.492;9.214;2024-01-11T09:07:09;0.60;26.90
578;DHT22;275;48.492;9.214;2024-01-11T09:09:36;0.50;27.10
578;DHT22;275;48.492;9.214;2024-01-11T09:12:03;0.50;26.90
578;DHT22;275;48.492;9.214;2024-01-11T09:14:31;0.70;26.30
578;DHT22;275;48.492;9.214;2024-01-11T09:16:58;0.80;26.50
578;DHT22;275;48.492;9.214;2024-01-11T09:19:25;1.10;25.50
578;DHT22;275;48.492;9.214;2024-01-11T09:21:52;1.20;25.70
578;DHT22;275;48.492;9.214;2024-01-11T09:24:19;0.60;26.20
578;DHT22;275;48.492;9.214;2024-01-11T09:26:46;0.10;26.90
578;DHT22;275;48.492;9.214;2024-01-11T09:29:15;-1.50;30.80
578;DHT22;275;48.492;9.214;2024-01-11T09:31:43;-1.70;33.20
578;DHT22;275;48.492;9.214;2024-01-11T09:34:10;-1.90;34.70
578;DHT22;275;48.492;9.214;2024-01-11T09:36:37;-2.00;35.40
578;DHT22;275;48.492;9.214;2024-01-11T09:39:05;-1.70;35.10
578;DHT22;275;48.492;9.214;2024-01-11T09:41:35;-1.50;34.00
578;DHT22;275;48.492;9.214;2024-01-11T09:44:05;-1.10;33.50
578;DHT22;275;48.492;9.214;2024-01-11T09:46:32;0.10;30.20
578;DHT22;275;48.492;9.214;2024-01-11T09:49:00;0.70;28.70
578;DHT22;275;48.492;9.214;2024-01-11T09:51:29;1.20;27.50
578;DHT22;275;48.492;9.214;2024-01-11T09:53:58;1.00;27.20
578;DHT22;275;48.492;9.214;2024-01-11T09:56:26;0.20;28.40
578;DHT22;275;48.492;9.214;2024-01-11T09:58:54;-0.10;29.50
578;DHT22;275;48.492;9.214;2024-01-11T10:01:21;0.50;29.00
578;DHT22;275;48.492;9.214;2024-01-11T10:03:48;0.50;27.90
578;DHT22;275;48.492;9.214;2024-01-11T10:06:17;0.50;28.70
578;DHT22;275;48.492;9.214;2024-01-11T10:08:45;1.00;28.30
578;DHT22;275;48.492;9.214;2024-01-11T10:11:12;1.60;26.80
578;DHT22;275;48.492;9.214;2024-01-11T10:13:38;1.30;27.40
578;DHT22;275;48.492;9.214;2024-01-11T10:16:06;1.50;27.10
578;DHT22;275;48.492;9.214;2024-01-11T10:18:34;1.70;26.60
578;DHT22;275;48.492;9.214;2024-01-11T10:21:02;1.90;25.70
578;DHT22;275;48.492;9.214;2024-01-11T10:23:33;1.80;25.90
578;DHT22;275;48.492;9.214;2024-01-11T10:26:00;1.90;25.70
578;DHT22;275;48.492;9.214;2024-01-11T10:28:28;2.30;24.90
578;DHT22;275;48.492;9.214;2024-01-11T10:30:55;1.90;25.20
578;DHT22;275;48.492;9.214;2024-01-11T10:33:22;2.00;25.80
578;DHT22;275;48.492;9.214;2024-01-11T10:35:49;2.20;25.20
578;DHT22;275;48.492;9.214;2024-01-11T10:38:17;1.10;26.80
578;DHT22;275;48.492;9.214;2024-01-11T10:40:45;1.30;26.40
578;DHT22;275;48.492;9.214;2024-01-11T10:43:15;1.20;27.00
578;DHT22;275;48.492;9.214;2024-01-11T10:45:48;0.50;28.30
578;DHT22;275;48.492;9.214;2024-01-11T10:48:21;0.90;27.70
578;DHT22;275;48.492;9.214;2024-01-11T10:50:54;1.40;26.60
578;DHT22;275;48.492;9.214;2024-01-11T10:53:25;1.40;26.50
578;DHT22;275;48.492;9.214;2024-01-11T10:55:57;1.80;26.10
578;DHT22;275;48.492;9.214;2024-01-11T10:58:26;2.10;25.60
578;DHT22;275;48.492;9.214;2024-01-11T11:00:54;2.20;25.20
578;DHT22;275;48.492;9.214;2024-01-11T11:03:23;1.90;25.30
578;DHT22;275;48.492;9.214;2024-01-11T11:05:53;0.60;27.70
578;DHT22;275;48.492;9.214;2024-01-11T11:08:22;0.10;29.90
578;DHT22;275;48.492;9.214;2024-01-11T11:10:51;0.00;29.60
578;DHT22;275;48.492;9.214;2024-01-11T11:13:22;-0.10;30.20
578;DHT22;275;48.492;9.214;2024-01-11T11:15:49;-0.30;31.80
578;DHT22;275;48.492;9.214;2024-01-11T11:18:17;-0.10;31.50
578;DHT22;275;48.492;9.214;2024-01-11T11:20:45;0.40;29.80
578;DHT22;275;48.492;9.214;2024-01-11T11:23:15;0.50;29.30
578;DHT22;275;48.492;9.214;2024-01-11T11:25:45;1.20;28.40
578;DHT22;275;48.492;9.214;2024-01-11T11:28:12;1.80;27.00
578;DHT22;275;48.492;9.214;2024-01-11T11:30:43;1.90;26.60
578;DHT22;275;48.492;9.214;2024-01-11T11:33:10;1.50;27.10
578;DHT22;275;48.492;9.214;2024-01-11T11:35:37;1.10;27.90
578;DHT22;275;48.492;9.214;2024-01-11T11:38:05;1.60;27.30
578;DHT22;275;48.492;9.214;2024-01-11T11:40:33;1.80;26.60
578;DHT22;275;48.492;9.214;2024-01-11T11:43:04;2.00;26.30
578;DHT22;275;48.492;9.214;2024-01-11T11:45:32;2.60;25.70
578;DHT22;275;48.492;9.214;2024-01-11T11:48:00;2.70;25.30
578;DHT22;275;48.492;9.214;2024-01-11T11:50:29;2.70;24.70
578;DHT22;275;48.492;9.214;2024-01-11T11:52:57;2.10;25.60
578;DHT22;275;48.492;9.214;2024-01-11T11:55:24;1.60;27.00
578;DHT22;275;48.492;9.214;2024-01-11T11:57:52;1.20;27.40
578;DHT22;275;48.492;9.214;2024-01-11T12:00:19;1.20;28.00
578;DHT22;275;48.492;9.214;2024-01-11T12:02:46;2.10;26.60
578;DHT22;275;48.492;9.214;2024-01-11T12:05:16;2.40;25.60
578;DHT22;275;48.492;9.214;2024-01-11T12:07:44;2.30;25.60
578;DHT22;275;48.492;9.214;2024-01-11T12:10:11;2.40;25.40
578;DHT22;275;48.492;9.214;2024-01-11T12:12:38;2.50;25.50
578;DHT22;275;48.492;9.214;2024-01-11T12:15:06;1.60;27.20
578;DHT22;275;48.492;9.214;2024-01-11T12:17:34;1.10;28.30
578;DHT22;275;48.492;9.214;2024-01-11T12:20:01;0.90;28.40
578;DHT22;275;48.492;9.214;2024-01-11T12:22:30;0.70;29.10
578;DHT22;275;48.492;9.214;2024-01-11T12:24:57;0.70;29.30
578;DHT22;275;48.492;9.214;2024-01-11T12:27:24;1.60;28.40
578;DHT22;275;48.492;9.214;2024-01-11T12:29:52;1.90;27.30
578;DHT22;275;48.492;9.214;2024-01-11T12:32:19;1.80;27.20
578;DHT22;275;48.492;9.214;2024-01-11T12:34:46;1.80;26.80
578;DHT22;275;48.492;9.214;2024-01-11T12:37:15;0.90;29.00
578;DHT22;275;48.492;9.214;2024-01-11T12:39:43;1.70;27.40
578;DHT22;275;48.492;9.214;2024-01-11T12:42:10;2.20;26.70
578;DHT22;275;48.492;9.214;2024-01-11T12:44:37;2.10;26.30
578;DHT22;275;48.492;9.214;2024-01-11T12:47:05;2.30;25.90
578;DHT22;275;48.492;9.214;2024-01-11T12:49:34;2.50;25.30
578;DHT22;275;48.492;9.214;2024-01-11T12:52:00;3.20;25.40
578;DHT22;275;48.492;9.214;2024-01-11T12:54:27;5.30;22.60
578;DHT22;275;48.492;9.214;2024-01-11T12:57:00;6.70;20.00
578;DHT22;275;48.492;9.214;2024-01-11T12:59:28;8.40;17.60
578;DHT22;275;48.492;9.214;2024-01-11T13:01:54;10.20;15.00
578;DHT22;275;48.492;9.214;2024-01-11T13:04:22;11.30;13.10
578;DHT22;275;48.492;9.214;2024-01-11T13:06:49;11.80;11.70
578;DHT22;275;48.492;9.214;2024-01-11T13:09:16;11.90;11.80
578;DHT22;275;48.492;9.214;2024-01-11T13:11:43;11.50;11.80
578;DHT22;275;48.492;9.214;2024-01-11T13:14:11;10.50;12.60
578;DHT22;275;48.492;9.214;2024-01-11T13:16:44;9.30;14.60
578;DHT22;275;48.492;9.214;2024-01-11T13:19:11;8.70;15.60
578;DHT22;275;48.492;9.214;2024-01-11T13:21:38;7.40;16.30
578;DHT22;275;48.492;9.214;2024-01-11T13:24:06;6.70;17.20
578;DHT22;275;48.492;9.214;2024-01-11T13:26:34;5.60;18.90
578;DHT22;275;48.492;9.214;2024-01-11T13:29:03;5.20;19.70
578;DHT22;275;48.492;9.214;2024-01-11T13:31:31;4.80;20.30
578;DHT22;275;48.492;9.214;2024-01-11T13:33:58;4.70;20.60
578;DHT22;275;48.492;9.214;2024-01-11T13:36:25;5.00;20.20
578;DHT22;275;48.492;9.214;2024-01-11T13:38:52;5.50;19.70
578;DHT22;275;48.492;9.214;2024-01-11T13:41:19;7.00;18.00
578;DHT22;275;48.492;9.214;2024-01-11T13:43:46;8.40;15.90
578;DHT22;275;48.492;9.214;2024-01-11T13:46:13;9.40;15.10
578;DHT22;275;48.492;9.214;2024-01-11T13:48:46;10.50;12.70
578;DHT22;275;48.492;9.214;2024-01-11T13:51:13;10.80;12.10
578;DHT22;275;48.492;9.214;2024-01-11T13:53:41;10.60;12.50
578;DHT22;275;48.492;9.214;2024-01-11T13:56:08;10.10;13.40
578;DHT22;275;48.492;9.214;2024-01-11T13:58:34;9.40;14.50
578;DHT22;275;48.492;9.214;2024-01-11T14:01:01;9.10;14.80
578;DHT22;275;48.492;9.214;2024-01-11T14:03:28;8.90;15.30
578;DHT22;275;48.492;9.214;2024-01-11T14:05:56;8.60;15.70
578;DHT22;275;48.492;9.214;2024-01-11T14:08:24;8.70;15.30
578;DHT22;275;48.492;9.214;2024-01-11T14:10:51;8.20;16.30
578;DHT22;275;48.492;9.214;2024-01-11T14:13:20;7.90;16.40
578;DHT22;275;48.492;9.214;2024-01-11T14:15:47;7.60;16.90
578;DHT22;275;48.492;9.214;2024-01-11T14:18:16;7.90;16.50
578;DHT22;275;48.492;9.214;2024-01-11T14:20:43;7.10;17.30
578;DHT22;275;48.492;9.214;2024-01-11T14:23:11;6.30;19.00
578;DHT22;275;48.492;9.214;2024-01-11T14:25:38;6.50;18.60
578;DHT22;275;48.492;9.214;2024-01-11T14:28:05;6.60;18.50
578;DHT22;275;48.492;9.214;2024-01-11T14:30:31;7.10;17.90
578;DHT22;275;48.492;9.214;2024-01-11T14:32:58;7.00;18.00
578;DHT22;275;48.492;9.214;2024-01-11T14:35:25;7.60;17.30
578;DHT22;275;48.492;9.214;2024-01-11T14:37:52;8.10;16.60
578;DHT22;275;48.492;9.214;2024-01-11T14:40:20;7.60;17.10
578;DHT22;275;48.492;9.214;2024-01-11T14:42:48;7.20;17.40
578;DHT22;275;48.492;9.214;2024-01-11T14:45:15;5.90;19.40
578;DHT22;275;48.492;9.214;2024-01-11T14:47:42;6.20;19.10
578;DHT22;275;48.492;9.214;2024-01-11T14:50:09;5.50;20.00
578;DHT22;275;48.492;9.214;2024-01-11T14:52:36;5.90;19.80
578;DHT22;275;48.492;9.214;2024-01-11T14:55:04;6.70;18.40
578;DHT22;275;48.492;9.214;2024-01-11T14:57:33;5.60;20.10
578;DHT22;275;48.492;9.214;2024-01-11T15:00:00;5.70;20.00
578;DHT22;275;48.492;9.214;2024-01-11T15:02:26;5.20;20.30
578;DHT22;275;48.492;9.214;2024-01-11T15:04:53;4.30;21.90
578;DHT22;275;48.492;9.214;2024-01-11T15:07:20;4.00;22.60
578;DHT22;275;48.492;9.214;2024-01-11T15:09:47;4.10;22.50
578;DHT22;275;48.492;9.214;2024-01-11T15:12:14;3.70;22.80
578;DHT22;275;48.492;9.214;2024-01-11T15:14:43;3.80;22.90
578;DHT22;275;48.492;9.214;2024-01-11T15:17:09;3.90;23.10
578;DHT22;275;48.492;9.214;2024-01-11T15:19:36;3.90;22.90
578;DHT22;275;48.492;9.214;2024-01-11T15:22:03;3.70;22.90
578;DHT22;275;48.492;9.214;2024-01-11T15:24:33;4.00;22.50
578;DHT22;275;48.492;9.214;2024-01-11T15:27:00;4.00;22.40
578;DHT22;275;48.492;9.214;2024-01-11T15:29:27;4.00;22.50
578;DHT22;275;48.492;9.214;2024-01-11T15:31:56;3.80;22.80
578;DHT22;275;48.492;9.214;2024-01-11T15:34:22;3.60;23.20
578;DHT22;275;48.492;9.214;2024-01-11T15:36:49;3.80;23.00
578;DHT22;275;48.492;9.214;2024-01-11T15:39:16;3.80;22.90
578;DHT22;275;48.492;9.214;2024-01-11T15:41:45;3.80;23.00
578;DHT22;275;48.492;9.214;2024-01-11T15:44:12;3.80;22.80
578;DHT22;275;48.492;9.214;2024-01-11T15:46:39;3.30;23.70
578;DHT22;275;48.492;9.214;2024-01-11T15:49:08;3.40;23.60
578;DHT22;275;48.492;9.214;2024-01-11T15:51:34;3.30;24.00
578;DHT22;275;48.492;9.214;2024-01-11T15:54:01;3.00;24.30
578;DHT22;275;48.492;9.214;2024-01-11T15:56:28;3.00;24.40
578;DHT22;275;48.492;9.214;2024-01-11T15:58:55;2.90;24.60
578;DHT22;275;48.492;9.214;2024-01-11T16:01:22;3.00;24.30
578;DHT22;275;48.492;9.214;2024-01-11T16:03:49;3.10;24.40
578;DHT22;275;48.492;9.214;2024-01-11T16:06:19;3.20;24.40
578;DHT22;275;48.492;9.214;2024-01-11T16:08:45;3.40;24.10
578;DHT22;275;48.492;9.214;2024-01-11T16:11:13;3.30;24.50
578;DHT22;275;48.492;9.214;2024-01-11T16:13:40;2.90;25.10
578;DHT22;275;48.492;9.214;2024-01-11T16:16:11;2.60;26.00
578;DHT22;275;48.492;9.214;2024-01-11T16:18:38;2.40;27.00
578;DHT22;275;48.492;9.214;2024-01-11T16:21:05;2.30;27.10
578;DHT22;275;48.492;9.214;2024-01-11T16:23:34;2.30;27.00
578;DHT22;275;48.492;9.214;2024-01-11T16:26:00;2.20;27.30
578;DHT22;275;48.492;9.214;2024-01-11T16:28:27;2.30;26.90
578;DHT22;275;48.492;9.214;2024-01-11T16:30:54;2.30;27.00
578;DHT22;275;48.492;9.214;2024-01-11T16:33:23;2.30;27.00
578;DHT22;275;48.492;9.214;2024-01-11T16:35:50;2.40;26.70
578;DHT22;275;48.492;9.214;2024-01-11T16:38:17;2.60;26.40
578;DHT22;275;48.492;9.214;2024-01-11T16:40:45;2.60;26.40
578;DHT22;275;48.492;9.214;2024-01-11T16:43:12;2.60;26.30
578;DHT22;275;48.492;9.214;2024-01-11T16:45:39;2.80;26.10